Cape Lisburne LRRS, AK

1:09 AM AKDT on November 01, 2014 (GMT -0800)
Cape Lisburne LRRS | Change Station
CLOSE
Current Station
Airport
Location: Cape Lisburne,
Elevation: 10 ft
Nearby Weather Stations

Elev 10 ft 68.88 °N, 166.13 °W | Updated 8 minutes ago

Mostly Cloudy
Mostly Cloudy
14 °F
Feels Like -6 °F
N
25
Wind Variable Wind from ENE

Today
High -- | Low -- °F
--% Chance of Precip.
Yesterday
High -- | Low -- °F
Precip. -- in
11:24 AM 6:09 PM
Waxing Gibbous, 64% visible
Pressure 29.81 in
Visibility 10.0 miles
Clouds Mostly Cloudy 1100 ft
Windchill -6 °F
Dew Point 12 °F
Humidity 93%
Rainfall 0.00 in
Snow Depth Not available.
UV 0 out of 12
Pollen Not available.
Air Quality Not available.
Flu Activity Not available.
SPECI PALU 010901Z AUTO 07022KT 10SM BKN011 M10/M11 A2981 RMK AO2 PK WND 07026/0859 SLP093

More Conditions Fewer Conditions

Pressure 29.81 in
Visibility 10.0 miles
Clouds Mostly Cloudy 1100 ft
Windchill -6 °F
Dew Point 12 °F
Humidity 93%
Rainfall 0.00 in
Snow Depth Not available.
UV 0 out of 12
Pollen Not available.
Air Quality Not available.
Flu Activity Not available.
SPECI PALU 010901Z AUTO 07022KT 10SM BKN011 M10/M11 A2981 RMK AO2 PK WND 07026/0859 SLP093

More Conditions Fewer Conditions

10-Day Weather Forecast

Almanac

Astronomy

Nov. 01, 2014 Rise Set
Actual Time
Civil Twilight
Nautical Twilight
Astronomical Twilight
Moon
Length of Visible Light
Length of Day
Tomorrow will be .
, % of the Moon is Illuminated

Today's Extremes

State Highs State Lows

Community

WunderPhotos

Upload Photos

1,766,871 photos uploaded!

WunderBlogs® & News

Nearby

Air Quality

  Air Quality AQ Index Pollutant
Not available.

Snow Depth

Station Depth Elevation

Earthquake Activity

City Distance Mag. Time & Date
Minimum magnitude displayed is 2.5.

Coastal Water Temperatures

Place Temperature

Nearby Weather Stations